sensor_id;sensor_type;location;lat;lon;timestamp;pressure;altitude;pressure_sealevel;temperature;humidity
12213;BME280;6169;44.158;22.788;2023-03-03T00:02:40;101533.75;;;7.42;59.39
12213;BME280;6169;44.158;22.788;2023-03-03T00:07:43;101529.28;;;7.56;58.57
12213;BME280;6169;44.158;22.788;2023-03-03T00:12:46;101522.56;;;7.52;58.98
12213;BME280;6169;44.158;22.788;2023-03-03T00:17:52;101520.94;;;7.57;58.06
12213;BME280;6169;44.158;22.788;2023-03-03T00:22:54;101518.09;;;7.66;58.56
12213;BME280;6169;44.158;22.788;2023-03-03T00:28:00;101513.91;;;7.63;58.23
12213;BME280;6169;44.158;22.788;2023-03-03T00:33:21;101506.44;;;7.65;58.96
12213;BME280;6169;44.158;22.788;2023-03-03T00:38:27;101508.50;;;7.35;59.15
12213;BME280;6169;44.158;22.788;2023-03-03T00:43:34;101506.19;;;7.10;60.90
12213;BME280;6169;44.158;22.788;2023-03-03T00:48:42;101505.03;;;7.20;59.89
12213;BME280;6169;44.158;22.788;2023-03-03T00:53:44;101494.28;;;7.05;60.56
12213;BME280;6169;44.158;22.788;2023-03-03T00:58:47;101480.63;;;7.13;60.98
12213;BME280;6169;44.158;22.788;2023-03-03T01:03:50;101487.69;;;6.71;63.09
12213;BME280;6169;44.158;22.788;2023-03-03T01:08:53;101475.31;;;6.62;62.20
12213;BME280;6169;44.158;22.788;2023-03-03T01:13:57;101475.97;;;7.00;61.31
12213;BME280;6169;44.158;22.788;2023-03-03T01:19:00;101468.19;;;6.54;63.12
12213;BME280;6169;44.158;22.788;2023-03-03T01:24:03;101462.84;;;6.82;62.56
12213;BME280;6169;44.158;22.788;2023-03-03T01:29:05;101459.25;;;6.75;62.15
12213;BME280;6169;44.158;22.788;2023-03-03T01:34:09;101449.66;;;6.73;62.25
12213;BME280;6169;44.158;22.788;2023-03-03T01:39:12;101447.41;;;6.76;61.99
12213;BME280;6169;44.158;22.788;2023-03-03T01:44:14;101443.28;;;6.59;62.93
12213;BME280;6169;44.158;22.788;2023-03-03T01:49:21;101436.09;;;6.66;62.25
12213;BME280;6169;44.158;22.788;2023-03-03T01:54:29;101432.41;;;6.88;62.50
12213;BME280;6169;44.158;22.788;2023-03-03T01:59:33;101428.66;;;6.89;62.12
12213;BME280;6169;44.158;22.788;2023-03-03T02:04:39;101426.25;;;6.80;61.67
12213;BME280;6169;44.158;22.788;2023-03-03T02:09:49;101421.28;;;6.62;62.29
12213;BME280;6169;44.158;22.788;2023-03-03T02:14:52;101419.38;;;6.77;62.24
12213;BME280;6169;44.158;22.788;2023-03-03T02:20:02;101409.53;;;6.70;63.49
12213;BME280;6169;44.158;22.788;2023-03-03T02:25:11;101410.88;;;6.80;63.06
12213;BME280;6169;44.158;22.788;2023-03-03T02:30:20;101409.44;;;6.84;61.80
12213;BME280;6169;44.158;22.788;2023-03-03T02:35:29;101410.72;;;7.10;61.04
12213;BME280;6169;44.158;22.788;2023-03-03T02:40:36;101397.75;;;6.77;61.35
12213;BME280;6169;44.158;22.788;2023-03-03T02:45:44;101398.50;;;6.71;61.74
12213;BME280;6169;44.158;22.788;2023-03-03T02:50:46;101398.91;;;6.89;61.39
12213;BME280;6169;44.158;22.788;2023-03-03T02:55:48;101389.19;;;6.95;60.67
12213;BME280;6169;44.158;22.788;2023-03-03T03:00:52;101383.84;;;6.80;61.47
12213;BME280;6169;44.158;22.788;2023-03-03T03:05:55;101390.38;;;6.86;62.38
12213;BME280;6169;44.158;22.788;2023-03-03T03:10:57;101382.81;;;6.81;60.74
12213;BME280;6169;44.158;22.788;2023-03-03T03:16:01;101380.81;;;6.90;61.14
12213;BME280;6169;44.158;22.788;2023-03-03T03:21:08;101384.19;;;6.92;60.80
12213;BME280;6169;44.158;22.788;2023-03-03T03:26:11;101372.97;;;6.95;61.51
12213;BME280;6169;44.158;22.788;2023-03-03T03:31:15;101376.31;;;6.97;60.62
12213;BME280;6169;44.158;22.788;2023-03-03T03:36:17;101359.56;;;7.08;59.69
12213;BME280;6169;44.158;22.788;2023-03-03T03:41:20;101368.13;;;7.19;60.13
12213;BME280;6169;44.158;22.788;2023-03-03T03:46:23;101365.03;;;6.94;60.07
12213;BME280;6169;44.158;22.788;2023-03-03T03:51:26;101361.16;;;7.31;59.77
12213;BME280;6169;44.158;22.788;2023-03-03T03:56:28;101358.31;;;6.83;61.29
12213;BME280;6169;44.158;22.788;2023-03-03T04:01:32;101355.03;;;6.87;60.47
12213;BME280;6169;44.158;22.788;2023-03-03T04:06:34;101349.16;;;6.84;61.09
12213;BME280;6169;44.158;22.788;2023-03-03T04:11:37;101344.06;;;6.96;60.09
12213;BME280;6169;44.158;22.788;2023-03-03T04:16:40;101351.50;;;7.22;60.09
12213;BME280;6169;44.158;22.788;2023-03-03T04:21:43;101344.25;;;7.22;59.94
12213;BME280;6169;44.158;22.788;2023-03-03T04:26:45;101345.28;;;7.21;60.19
12213;BME280;6169;44.158;22.788;2023-03-03T04:31:49;101350.22;;;7.11;59.70
12213;BME280;6169;44.158;22.788;2023-03-03T04:36:52;101320.22;;;7.06;60.15
12213;BME280;6169;44.158;22.788;2023-03-03T04:41:54;101330.63;;;7.02;60.51
12213;BME280;6169;44.158;22.788;2023-03-03T04:46:58;101340.56;;;7.02;59.62
12213;BME280;6169;44.158;22.788;2023-03-03T04:52:01;101339.69;;;6.95;59.92
12213;BME280;6169;44.158;22.788;2023-03-03T04:57:03;101342.16;;;6.89;60.79
12213;BME280;6169;44.158;22.788;2023-03-03T05:02:07;101344.72;;;6.98;60.50
12213;BME280;6169;44.158;22.788;2023-03-03T05:07:10;101345.56;;;7.05;60.37
12213;BME280;6169;44.158;22.788;2023-03-03T05:12:12;101346.00;;;6.80;61.03
12213;BME280;6169;44.158;22.788;2023-03-03T05:17:16;101330.41;;;6.82;61.18
12213;BME280;6169;44.158;22.788;2023-03-03T05:22:18;101333.91;;;6.98;60.68
12213;BME280;6169;44.158;22.788;2023-03-03T05:27:20;101319.94;;;6.94;60.37
12213;BME280;6169;44.158;22.788;2023-03-03T05:32:24;101331.19;;;6.98;61.34
12213;BME280;6169;44.158;22.788;2023-03-03T05:37:28;101332.00;;;7.26;60.57
12213;BME280;6169;44.158;22.788;2023-03-03T05:42:30;101337.00;;;7.29;60.22
12213;BME280;6169;44.158;22.788;2023-03-03T05:47:34;101340.34;;;7.31;59.76
12213;BME280;6169;44.158;22.788;2023-03-03T05:52:36;101269.94;;;6.55;59.61
12213;BME280;6169;44.158;22.788;2023-03-03T05:57:39;101341.00;;;7.33;59.29
12213;BME280;6169;44.158;22.788;2023-03-03T06:02:43;101342.78;;;7.20;59.33
12213;BME280;6169;44.158;22.788;2023-03-03T06:07:45;101347.56;;;6.89;59.43
12213;BME280;6169;44.158;22.788;2023-03-03T06:12:47;101342.88;;;7.05;59.50
12213;BME280;6169;44.158;22.788;2023-03-03T06:17:51;101352.00;;;7.32;59.03
12213;BME280;6169;44.158;22.788;2023-03-03T06:22:54;101343.19;;;7.17;58.64
12213;BME280;6169;44.158;22.788;2023-03-03T06:27:56;101354.56;;;7.47;56.36
12213;BME280;6169;44.158;22.788;2023-03-03T06:33:00;101351.31;;;7.23;57.69
12213;BME280;6169;44.158;22.788;2023-03-03T06:38:02;101344.56;;;7.41;57.13
12213;BME280;6169;44.158;22.788;2023-03-03T06:43:05;101346.09;;;7.22;57.43
12213;BME280;6169;44.158;22.788;2023-03-03T06:48:08;101348.88;;;7.28;56.72
12213;BME280;6169;44.158;22.788;2023-03-03T06:53:12;101349.69;;;7.29;57.73
12213;BME280;6169;44.158;22.788;2023-03-03T06:58:16;101359.88;;;7.27;57.46
12213;BME280;6169;44.158;22.788;2023-03-03T07:03:22;101364.94;;;7.37;58.06
12213;BME280;6169;44.158;22.788;2023-03-03T07:08:29;101355.59;;;7.94;56.20
12213;BME280;6169;44.158;22.788;2023-03-03T07:13:33;101353.28;;;7.84;56.82
12213;BME280;6169;44.158;22.788;2023-03-03T07:18:47;101352.72;;;8.02;56.27
12213;BME280;6169;44.158;22.788;2023-03-03T07:23:52;101356.03;;;7.97;54.19
12213;BME280;6169;44.158;22.788;2023-03-03T07:28:55;101353.50;;;7.89;54.67
12213;BME280;6169;44.158;22.788;2023-03-03T07:34:04;101344.00;;;8.07;55.04
12213;BME280;6169;44.158;22.788;2023-03-03T07:39:29;101339.88;;;8.31;53.76
12213;BME280;6169;44.158;22.788;2023-03-03T07:44:35;101344.28;;;8.65;51.18
12213;BME280;6169;44.158;22.788;2023-03-03T07:49:39;101335.28;;;9.18;50.67
12213;BME280;6169;44.158;22.788;2023-03-03T07:54:44;101339.00;;;9.37;50.04
12213;BME280;6169;44.158;22.788;2023-03-03T07:59:48;101329.03;;;9.10;50.36
12213;BME280;6169;44.158;22.788;2023-03-03T08:04:53;101327.38;;;9.09;49.17
12213;BME280;6169;44.158;22.788;2023-03-03T08:09:57;101335.28;;;9.18;48.83
12213;BME280;6169;44.158;22.788;2023-03-03T08:15:21;101326.88;;;9.32;48.66
12213;BME280;6169;44.158;22.788;2023-03-03T08:20:58;101335.09;;;8.93;49.99
12213;BME280;6169;44.158;22.788;2023-03-03T08:26:02;101333.19;;;9.20;48.46
12213;BME280;6169;44.158;22.788;2023-03-03T08:31:04;101331.66;;;9.44;47.46
12213;BME280;6169;44.158;22.788;2023-03-03T08:36:09;101321.16;;;8.62;45.96
12213;BME280;6169;44.158;22.788;2023-03-03T08:41:11;101317.44;;;9.55;44.67
12213;BME280;6169;44.158;22.788;2023-03-03T08:46:14;101319.97;;;9.56;44.56
12213;BME280;6169;44.158;22.788;2023-03-03T08:51:18;101314.41;;;9.25;46.30
12213;BME280;6169;44.158;22.788;2023-03-03T08:56:20;101320.88;;;10.20;44.63
12213;BME280;6169;44.158;22.788;2023-03-03T09:01:22;101317.88;;;10.29;45.38
12213;BME280;6169;44.158;22.788;2023-03-03T09:06:26;101317.41;;;10.63;43.04
12213;BME280;6169;44.158;22.788;2023-03-03T09:11:29;101319.44;;;10.11;44.02
12213;BME280;6169;44.158;22.788;2023-03-03T09:16:37;101322.19;;;9.73;43.99
12213;BME280;6169;44.158;22.788;2023-03-03T09:21:41;101317.03;;;10.60;42.69
12213;BME280;6169;44.158;22.788;2023-03-03T09:26:45;101313.13;;;10.17;42.69
12213;BME280;6169;44.158;22.788;2023-03-03T09:31:50;101314.13;;;10.30;42.69
12213;BME280;6169;44.158;22.788;2023-03-03T09:36:54;101315.56;;;10.82;42.36
12213;BME280;6169;44.158;22.788;2023-03-03T09:42:36;101309.44;;;10.68;42.43
12213;BME280;6169;44.158;22.788;2023-03-03T09:53:34;101308.97;;;9.83;44.03
12213;BME280;6169;44.158;22.788;2023-03-03T09:58:49;101303.09;;;10.50;44.18
12213;BME280;6169;44.158;22.788;2023-03-03T10:04:18;101307.31;;;11.14;42.03
12213;BME280;6169;44.158;22.788;2023-03-03T10:09:39;101295.09;;;10.55;44.14
12213;BME280;6169;44.158;22.788;2023-03-03T10:14:57;101289.97;;;10.90;43.62
12213;BME280;6169;44.158;22.788;2023-03-03T10:20:13;101284.81;;;10.57;42.94
12213;BME280;6169;44.158;22.788;2023-03-03T10:25:28;101279.28;;;11.13;42.24
12213;BME280;6169;44.158;22.788;2023-03-03T10:30:41;101283.53;;;11.28;41.58
12213;BME280;6169;44.158;22.788;2023-03-03T10:36:02;101267.44;;;11.56;43.24
12213;BME280;6169;44.158;22.788;2023-03-03T10:41:24;101260.16;;;11.87;41.04
12213;BME280;6169;44.158;22.788;2023-03-03T10:46:43;101248.53;;;11.62;42.28
12213;BME280;6169;44.158;22.788;2023-03-03T10:52:07;101251.78;;;11.52;42.83
12213;BME280;6169;44.158;22.788;2023-03-03T10:57:21;101223.38;;;11.78;42.04
12213;BME280;6169;44.158;22.788;2023-03-03T11:02:32;101236.28;;;10.85;44.19
12213;BME280;6169;44.158;22.788;2023-03-03T11:07:43;101224.84;;;10.77;44.86
12213;BME280;6169;44.158;22.788;2023-03-03T11:12:53;101220.13;;;11.69;42.26
12213;BME280;6169;44.158;22.788;2023-03-03T11:18:17;101078.34;;;10.25;45.50
12213;BME280;6169;44.158;22.788;2023-03-03T11:23:37;101208.38;;;11.08;43.71
12213;BME280;6169;44.158;22.788;2023-03-03T11:29:02;101205.72;;;11.02;45.69
12213;BME280;6169;44.158;22.788;2023-03-03T11:34:19;101196.16;;;11.48;44.90
12213;BME280;6169;44.158;22.788;2023-03-03T11:39:24;101189.59;;;11.37;45.41
12213;BME280;6169;44.158;22.788;2023-03-03T11:44:32;101194.78;;;11.08;44.42
12213;BME280;6169;44.158;22.788;2023-03-03T11:49:39;101179.97;;;11.34;45.86
12213;BME280;6169;44.158;22.788;2023-03-03T11:54:49;101182.16;;;10.96;46.04
12213;BME280;6169;44.158;22.788;2023-03-03T12:00:02;101032.91;;;10.69;45.47
12213;BME280;6169;44.158;22.788;2023-03-03T12:05:09;101157.81;;;11.19;44.77
12213;BME280;6169;44.158;22.788;2023-03-03T12:10:21;101160.38;;;11.14;47.18
12213;BME280;6169;44.158;22.788;2023-03-03T12:15:32;101156.06;;;12.32;44.89
12213;BME280;6169;44.158;22.788;2023-03-03T12:20:44;101155.16;;;11.43;47.34
12213;BME280;6169;44.158;22.788;2023-03-03T12:25:57;101153.03;;;11.14;47.09
12213;BME280;6169;44.158;22.788;2023-03-03T12:31:16;101154.31;;;10.57;47.99
12213;BME280;6169;44.158;22.788;2023-03-03T12:36:48;101152.53;;;10.25;49.28
12213;BME280;6169;44.158;22.788;2023-03-03T12:41:58;101144.75;;;10.54;49.93
12213;BME280;6169;44.158;22.788;2023-03-03T12:47:11;101139.06;;;11.83;46.58
12213;BME280;6169;44.158;22.788;2023-03-03T12:52:25;101133.75;;;11.88;43.95
12213;BME280;6169;44.158;22.788;2023-03-03T12:57:36;101125.53;;;11.34;47.96
12213;BME280;6169;44.158;22.788;2023-03-03T13:02:48;101130.41;;;11.02;47.06
12213;BME280;6169;44.158;22.788;2023-03-03T13:08:10;101132.25;;;11.62;46.54
12213;BME280;6169;44.158;22.788;2023-03-03T13:13:24;101119.78;;;12.20;45.63
12213;BME280;6169;44.158;22.788;2023-03-03T13:18:41;101116.53;;;12.58;44.77
12213;BME280;6169;44.158;22.788;2023-03-03T13:23:54;101106.91;;;12.67;45.03
12213;BME280;6169;44.158;22.788;2023-03-03T13:29:08;101103.56;;;11.90;46.77
12213;BME280;6169;44.158;22.788;2023-03-03T13:34:24;101108.97;;;12.60;45.65
12213;BME280;6169;44.158;22.788;2023-03-03T13:39:34;101111.00;;;12.30;48.18
12213;BME280;6169;44.158;22.788;2023-03-03T13:44:41;101109.41;;;11.63;49.34
12213;BME280;6169;44.158;22.788;2023-03-03T13:55:20;101099.47;;;11.69;48.32
12213;BME280;6169;44.158;22.788;2023-03-03T14:00:46;101093.09;;;11.33;50.17
12213;BME280;6169;44.158;22.788;2023-03-03T14:05:56;101087.00;;;11.61;49.26
12213;BME280;6169;44.158;22.788;2023-03-03T14:11:08;101087.59;;;11.51;49.86
12213;BME280;6169;44.158;22.788;2023-03-03T14:16:17;101100.72;;;10.82;52.00
12213;BME280;6169;44.158;22.788;2023-03-03T14:21:26;101089.81;;;11.31;51.75
12213;BME280;6169;44.158;22.788;2023-03-03T14:26:29;101091.06;;;11.58;51.80
12213;BME280;6169;44.158;22.788;2023-03-03T14:31:38;101089.97;;;11.48;51.24
12213;BME280;6169;44.158;22.788;2023-03-03T14:36:44;101081.03;;;10.68;53.11
12213;BME280;6169;44.158;22.788;2023-03-03T14:41:46;101079.50;;;10.91;51.70
12213;BME280;6169;44.158;22.788;2023-03-03T14:47:02;101078.81;;;11.07;52.52
12213;BME280;6169;44.158;22.788;2023-03-03T14:52:23;101077.75;;;10.97;51.84
12213;BME280;6169;44.158;22.788;2023-03-03T14:57:38;101077.41;;;10.75;52.07
12213;BME280;6169;44.158;22.788;2023-03-03T15:03:01;101064.56;;;11.24;50.82
12213;BME280;6169;44.158;22.788;2023-03-03T15:08:13;101060.41;;;11.21;51.48
12213;BME280;6169;44.158;22.788;2023-03-03T15:13:33;101063.13;;;11.21;51.40
12213;BME280;6169;44.158;22.788;2023-03-03T15:18:52;101052.72;;;11.18;52.18
12213;BME280;6169;44.158;22.788;2023-03-03T15:24:04;101057.44;;;10.25;56.41
12213;BME280;6169;44.158;22.788;2023-03-03T15:29:15;101056.31;;;10.33;56.19
12213;BME280;6169;44.158;22.788;2023-03-03T15:34:26;101065.50;;;9.95;57.28
12213;BME280;6169;44.158;22.788;2023-03-03T15:39:42;101062.38;;;10.35;56.75
12213;BME280;6169;44.158;22.788;2023-03-03T15:44:54;101064.06;;;10.11;57.56
12213;BME280;6169;44.158;22.788;2023-03-03T15:50:09;101065.28;;;10.34;56.96
12213;BME280;6169;44.158;22.788;2023-03-03T15:55:23;101072.91;;;10.25;57.64
12213;BME280;6169;44.158;22.788;2023-03-03T16:00:46;101062.53;;;9.78;59.26
12213;BME280;6169;44.158;22.788;2023-03-03T16:05:58;101074.44;;;10.21;58.21
12213;BME280;6169;44.158;22.788;2023-03-03T16:11:08;101074.41;;;9.52;60.07
12213;BME280;6169;44.158;22.788;2023-03-03T16:16:23;101078.03;;;9.96;58.92
12213;BME280;6169;44.158;22.788;2023-03-03T16:21:45;101081.81;;;9.95;58.65
12213;BME280;6169;44.158;22.788;2023-03-03T16:26:57;101084.06;;;10.17;58.68
12213;BME280;6169;44.158;22.788;2023-03-03T16:32:08;101084.94;;;10.54;57.18
12213;BME280;6169;44.158;22.788;2023-03-03T16:37:17;101089.16;;;10.32;58.19
12213;BME280;6169;44.158;22.788;2023-03-03T16:42:27;101092.81;;;10.00;59.34
12213;BME280;6169;44.158;22.788;2023-03-03T16:47:40;101101.84;;;9.94;59.35
12213;BME280;6169;44.158;22.788;2023-03-03T16:52:52;101103.84;;;10.06;58.93
12213;BME280;6169;44.158;22.788;2023-03-03T16:57:58;101105.28;;;10.08;58.51
12213;BME280;6169;44.158;22.788;2023-03-03T17:09:12;101106.91;;;9.91;59.07
12213;BME280;6169;44.158;22.788;2023-03-03T17:14:37;101107.91;;;9.96;58.96
12213;BME280;6169;44.158;22.788;2023-03-03T17:19:49;101108.53;;;9.67;60.15
12213;BME280;6169;44.158;22.788;2023-03-03T17:25:05;101115.13;;;9.52;60.59
12213;BME280;6169;44.158;22.788;2023-03-03T17:30:20;101114.03;;;9.60;60.46
12213;BME280;6169;44.158;22.788;2023-03-03T17:40:54;101116.94;;;9.27;61.07
12213;BME280;6169;44.158;22.788;2023-03-03T17:46:07;101116.75;;;9.28;61.08
12213;BME280;6169;44.158;22.788;2023-03-03T17:51:30;101127.91;;;9.07;61.88
12213;BME280;6169;44.158;22.788;2023-03-03T17:56:45;101122.91;;;8.52;63.84
12213;BME280;6169;44.158;22.788;2023-03-03T18:02:16;101135.66;;;8.25;65.10
12213;BME280;6169;44.158;22.788;2023-03-03T18:07:44;101134.34;;;8.61;62.91
12213;BME280;6169;44.158;22.788;2023-03-03T18:12:56;101132.78;;;8.27;64.25
12213;BME280;6169;44.158;22.788;2023-03-03T18:18:14;101135.03;;;8.36;63.70
12213;BME280;6169;44.158;22.788;2023-03-03T18:23:34;101139.00;;;8.00;65.00
12213;BME280;6169;44.158;22.788;2023-03-03T18:28:46;101149.00;;;8.13;64.52
12213;BME280;6169;44.158;22.788;2023-03-03T18:34:06;101151.72;;;8.13;64.04
12213;BME280;6169;44.158;22.788;2023-03-03T18:39:13;101151.09;;;8.38;61.86
12213;BME280;6169;44.158;22.788;2023-03-03T18:44:28;101153.59;;;8.13;63.23
12213;BME280;6169;44.158;22.788;2023-03-03T18:50:14;101157.97;;;8.07;63.69
12213;BME280;6169;44.158;22.788;2023-03-03T18:55:27;101166.91;;;7.94;63.41
12213;BME280;6169;44.158;22.788;2023-03-03T19:00:30;101157.75;;;7.62;64.17
12213;BME280;6169;44.158;22.788;2023-03-03T19:05:36;101156.91;;;7.62;64.30
12213;BME280;6169;44.158;22.788;2023-03-03T19:10:54;101165.19;;;7.47;64.76
12213;BME280;6169;44.158;22.788;2023-03-03T19:15:57;101176.47;;;7.64;63.58
12213;BME280;6169;44.158;22.788;2023-03-03T19:21:05;101167.88;;;7.40;65.23
12213;BME280;6169;44.158;22.788;2023-03-03T19:26:38;101178.78;;;7.80;64.06
12213;BME280;6169;44.158;22.788;2023-03-03T19:31:54;101175.81;;;7.55;65.06
12213;BME280;6169;44.158;22.788;2023-03-03T19:37:08;101186.59;;;7.28;65.87
12213;BME280;6169;44.158;22.788;2023-03-03T19:42:29;101198.34;;;7.69;63.65
12213;BME280;6169;44.158;22.788;2023-03-03T19:47:38;101192.53;;;7.78;62.88
12213;BME280;6169;44.158;22.788;2023-03-03T19:52:50;101206.69;;;7.94;62.32
12213;BME280;6169;44.158;22.788;2023-03-03T19:58:06;101212.31;;;7.86;61.70
12213;BME280;6169;44.158;22.788;2023-03-03T20:08:54;101211.50;;;8.05;60.92
12213;BME280;6169;44.158;22.788;2023-03-03T20:14:02;101205.25;;;7.98;61.30
12213;BME280;6169;44.158;22.788;2023-03-03T20:19:16;101208.78;;;7.92;61.55
12213;BME280;6169;44.158;22.788;2023-03-03T20:24:37;101201.63;;;7.57;61.12
12213;BME280;6169;44.158;22.788;2023-03-03T20:29:57;101210.44;;;7.99;60.82
12213;BME280;6169;44.158;22.788;2023-03-03T20:35:12;101206.25;;;7.70;61.63
12213;BME280;6169;44.158;22.788;2023-03-03T20:40:29;101207.09;;;7.09;63.07
12213;BME280;6169;44.158;22.788;2023-03-03T20:45:44;101205.28;;;7.30;63.18
12213;BME280;6169;44.158;22.788;2023-03-03T20:50:55;101195.53;;;7.29;62.65
12213;BME280;6169;44.158;22.788;2023-03-03T20:56:06;101199.28;;;7.34;62.21
12213;BME280;6169;44.158;22.788;2023-03-03T21:01:14;101184.63;;;7.09;62.69
12213;BME280;6169;44.158;22.788;2023-03-03T21:06:18;101131.97;;;6.92;63.29
12213;BME280;6169;44.158;22.788;2023-03-03T21:11:24;101184.72;;;7.36;61.47
12213;BME280;6169;44.158;22.788;2023-03-03T21:16:41;101183.06;;;7.28;61.95
12213;BME280;6169;44.158;22.788;2023-03-03T21:21:43;101182.84;;;7.29;61.71
12213;BME280;6169;44.158;22.788;2023-03-03T21:26:50;101192.25;;;6.92;62.34
12213;BME280;6169;44.158;22.788;2023-03-03T21:31:54;101193.00;;;7.27;60.52
12213;BME280;6169;44.158;22.788;2023-03-03T21:36:58;101191.59;;;7.31;61.07
12213;BME280;6169;44.158;22.788;2023-03-03T21:42:03;101194.94;;;7.33;60.58
12213;BME280;6169;44.158;22.788;2023-03-03T21:47:08;101195.94;;;7.19;61.01
12213;BME280;6169;44.158;22.788;2023-03-03T21:52:11;101168.97;;;6.91;61.19
12213;BME280;6169;44.158;22.788;2023-03-03T21:57:17;101189.97;;;6.96;61.88
12213;BME280;6169;44.158;22.788;2023-03-03T22:02:19;101186.50;;;6.74;61.94
12213;BME280;6169;44.158;22.788;2023-03-03T22:07:22;101193.44;;;6.83;61.74
12213;BME280;6169;44.158;22.788;2023-03-03T22:12:26;101191.34;;;6.85;61.27
12213;BME280;6169;44.158;22.788;2023-03-03T22:17:28;101185.28;;;6.76;61.50
12213;BME280;6169;44.158;22.788;2023-03-03T22:22:30;101191.72;;;6.40;62.96
12213;BME280;6169;44.158;22.788;2023-03-03T22:27:34;101188.09;;;6.55;61.85
12213;BME280;6169;44.158;22.788;2023-03-03T22:32:36;101185.56;;;6.25;62.70
12213;BME280;6169;44.158;22.788;2023-03-03T22:37:39;101176.53;;;6.39;63.34
12213;BME280;6169;44.158;22.788;2023-03-03T22:42:43;101183.63;;;6.40;63.19
12213;BME280;6169;44.158;22.788;2023-03-03T22:47:45;101187.50;;;6.31;63.22
12213;BME280;6169;44.158;22.788;2023-03-03T22:52:47;101178.06;;;6.20;64.30
12213;BME280;6169;44.158;22.788;2023-03-03T22:57:51;101185.94;;;6.43;63.63
12213;BME280;6169;44.158;22.788;2023-03-03T23:02:53;101173.94;;;6.25;64.10
12213;BME280;6169;44.158;22.788;2023-03-03T23:07:55;101171.50;;;6.02;65.17
12213;BME280;6169;44.158;22.788;2023-03-03T23:12:59;101172.81;;;6.12;64.68
12213;BME280;6169;44.158;22.788;2023-03-03T23:18:02;101181.28;;;6.37;63.37
12213;BME280;6169;44.158;22.788;2023-03-03T23:23:04;101176.56;;;6.74;62.31
12213;BME280;6169;44.158;22.788;2023-03-03T23:28:08;101178.59;;;6.37;62.60
12213;BME280;6169;44.158;22.788;2023-03-03T23:33:10;101184.59;;;6.67;62.05
12213;BME280;6169;44.158;22.788;2023-03-03T23:38:12;101176.63;;;6.87;60.24
12213;BME280;6169;44.158;22.788;2023-03-03T23:43:18;101180.72;;;7.18;59.82
12213;BME280;6169;44.158;22.788;2023-03-03T23:48:21;101169.25;;;7.16;59.28
12213;BME280;6169;44.158;22.788;2023-03-03T23:53:23;101169.16;;;6.89;60.41
12213;BME280;6169;44.158;22.788;2023-03-03T23:58:27;101179.41;;;7.07;59.83
